Latest Weather Observations for Cape Nelson

IDV60801

Issued at 8:32 pm EST Sunday 25 June 2017 (issued every 30 minutes, with the page automatically refreshed every 10 minutes)

About weather observations | Map of weather stations | Latest weather observations for VIC | Other Formats
Station Details ID: 090184 Name: CAPE NELSON LIGHTHOUSE Lat: -38.43 Lon: 141.54 Height: 45.4 m
Data from the previous 72 hours. | See also: Recent months at Cape Nelson
Date/Time
EST
Temp
°C
App
Temp
°C
Dew
Point
°C
Rel
Hum
%
Delta-T
°C
Wind Press
QNH
hPa
Press
MSL
hPa
Rain since
9am
mm
Dir  Spd
km/h
Gust
km/h
Spd
kts
Gust
kts
25/08:30pm 11.6 7.5 6.3 70 2.5 NNE 17 28 9 15 1017.8 1017.8 3.4
25/08:00pm 11.9 8.0 7.0 72 2.3 NNE 17 28 9 15 1017.4 1017.4 3.4
25/07:30pm 11.8 8.3 7.1 73 2.3 N 15 32 8 17 1017.1 1017.1 3.4
25/07:00pm 11.5 7.4 8.0 79 1.7 NNW 19 28 10 15 1016.6 1016.6 3.4
25/06:30pm 12.1 9.2 8.0 76 2.0 NNE 13 22 7 12 1016.2 1016.2 3.2
25/06:00pm 11.8 8.0 7.5 75 2.1 NNE 17 32 9 17 1015.8 1015.8 3.2
25/05:30pm 12.0 8.3 7.9 76 2.0 N 17 28 9 15 1015.6 1015.6 3.2
25/05:00pm 12.1 8.1 8.4 78 1.8 NNE 19 33 10 18 1015.0 1015.0 3.2
25/04:30pm 11.8 8.0 9.2 84 1.3 NNW 19 30 10 16 1014.9 1014.9 3.2
25/04:00pm 11.5 6.8 9.2 86 1.2 WNW 24 41 13 22 1014.8 1014.8 3.2
25/03:30pm 11.6 7.3 9.3 86 1.2 NW 22 35 12 19 1014.3 1014.3 3.0
25/03:00pm 11.6 5.5 9.7 88 1.0 W 32 43 17 23 1014.4 1014.4 3.0
25/02:37pm 12.6 6.7 10.3 86 1.2 W 32 76 17 41 1014.0 1014.0 1.8
25/02:30pm 12.5 7.3 10.4 87 1.1 W 28 43 15 23 1014.2 1014.2 1.8
25/02:01pm 11.6 4.5 9.5 87 1.1 W 37 56 20 30 1014.2 1014.2 1.6
25/02:00pm 11.5 4.0 9.4 87 1.1 W 39 56 21 30 1014.2 1014.2 1.6
25/01:30pm 12.1 5.0 9.7 85 1.2 W 37 65 20 35 1014.3 1014.3 0.6
25/01:00pm 13.3 6.2 9.5 78 1.9 W 37 56 20 30 1014.1 1014.1 0.4
25/12:30pm 12.9 5.5 9.9 82 1.5 W 39 57 21 31 1014.3 1014.3 0.4
25/12:03pm 12.5 5.0 9.5 82 1.5 W 39 57 21 31 1014.6 1014.6 0.4
25/12:00pm 12.0 3.6 9.0 82 1.5 W 43 57 23 31 1014.6 1014.6 0.4
25/11:30am 12.1 5.9 9.5 84 1.3 WNW 32 44 17 24 1015.0 1015.0 0.2
25/11:00am 11.8 5.9 10.4 91 0.7 WNW 32 50 17 27 1015.0 1015.0 0.2
25/10:57am 10.9 5.1 9.5 91 0.7 NW 30 50 16 27 1015.1 1015.1 0.2
25/10:30am 10.2 3.9 9.0 92 0.6 NW 32 41 17 22 1015.0 1015.0 0.2
25/10:00am 9.9 4.3 8.7 92 0.6 NW 28 41 15 22 1015.0 1015.0 0.2
25/09:30am 9.5 3.0 8.3 92 0.6 NW 32 43 17 23 1014.8 1014.8 0.0
25/09:00am 9.4 3.7 8.2 92 0.6 NW 28 37 15 20 1014.7 1014.7 3.6
25/08:30am 9.5 3.4 8.1 91 0.7 NW 30 43 16 23 1014.6 1014.6 3.6
25/08:00am 9.5 4.8 7.9 90 0.8 NW 22 30 12 16 1014.5 1014.5 3.0
25/07:30am 9.5 2.7 7.8 89 0.8 NW 33 59 18 32 1014.4 1014.4 2.8
25/07:21am 10.5 4.0 8.8 89 0.8 WNW 33 52 18 28 1014.4 1014.4 2.4
25/07:00am 8.9 2.9 7.2 89 0.8 NW 28 37 15 20 1014.3 1014.3 2.4
25/06:30am 9.1 3.5 7.1 87 0.9 NW 26 35 14 19 1014.2 1014.2 2.4
25/06:00am 9.1 3.8 6.9 86 1.0 NW 24 35 13 19 1014.2 1014.2 2.4
25/05:31am 9.6 3.5 6.7 82 1.4 NW 28 46 15 25 1014.1 1014.1 2.2
25/05:30am 9.6 3.9 6.7 82 1.4 NW 26 39 14 21 1014.1 1014.1 2.2
25/05:14am 10.8 4.6 7.7 81 1.5 WNW 30 48 16 26 1013.9 1013.9 2.2
25/05:00am 9.7 2.9 7.0 83 1.3 WNW 32 43 17 23 1014.0 1014.0 2.2
25/04:48am 10.3 3.6 7.5 83 1.3 WNW 32 52 17 28 1014.2 1014.2 2.2
25/04:30am 9.9 3.5 6.8 81 1.5 WNW 30 43 16 23 1014.5 1014.5 2.2
25/04:00am 10.2 3.4 7.1 81 1.5 WNW 32 48 17 26 1014.5 1014.5 2.2
25/03:30am 9.5 4.4 6.2 80 1.5 NNW 22 33 12 18 1014.7 1014.7 2.0
25/03:07am 10.6 3.7 6.6 76 1.9 W 32 50 17 27 1014.7 1014.7 2.0
25/03:00am 11.0 4.1 7.3 78 1.8 W 33 46 18 25 1014.8 1014.8 2.0
25/02:32am 9.7 3.7 7.1 84 1.2 WNW 28 46 15 25 1015.1 1015.1 2.0
25/02:30am 9.7 2.9 7.1 84 1.2 WNW 32 46 17 25 1015.1 1015.1 2.0
25/02:18am 10.2 4.4 8.1 87 1.0 WNW 28 46 15 25 1015.0 1015.0 2.0
25/02:00am 8.7 4.1 6.7 87 0.9 NW 20 33 11 18 1015.3 1015.3 2.0
25/01:30am 8.6 3.9 6.2 85 1.1 NNW 20 30 11 16 1015.4 1015.4 2.0
25/01:00am 8.9 5.2 6.2 83 1.2 NW 15 22 8 12 1015.6 1015.6 2.0
25/12:30am 9.6 4.2 6.3 80 1.5 WNW 24 35 13 19 1015.6 1015.6 2.0
25/12:00am 8.7 4.2 6.3 85 1.1 NNW 19 28 10 15 1015.8 1015.8 2.0
 
Date/Time
EST
Temp
°C
App
Temp
°C
Dew
Point
°C
Rel
Hum
%
Delta-T
°C
Wind Press
QNH
hPa
Press
MSL
hPa
Rain since
9am
mm
Dir  Spd
km/h
Gust
km/h
Spd
kts
Gust
kts
24/11:30pm 9.3 3.2 6.7 84 1.2 WNW 28 41 15 22 1015.9 1015.9 2.0
24/11:00pm 8.5 4.4 6.1 85 1.1 NNW 17 28 9 15 1016.2 1016.2 2.0
24/10:30pm 9.0 5.2 5.7 80 1.5 NNW 15 20 8 11 1016.5 1016.5 1.8
24/10:00pm 10.0 4.4 5.6 74 2.0 WNW 24 35 13 19 1016.4 1016.4 1.8
24/09:30pm 10.3 4.8 5.7 73 2.1 WNW 24 35 13 19 1016.6 1016.6 1.8
24/09:00pm 10.8 4.2 6.2 73 2.1 W 30 50 16 27 1016.8 1016.8 1.8
24/08:56pm 10.3 4.0 5.7 73 2.1 W 28 50 15 27 1016.7 1016.7 1.8
24/08:37pm 9.8 5.3 7.1 83 1.3 WNW 20 37 11 20 1016.8 1016.8 1.8
24/08:30pm 8.4 4.9 5.5 82 1.3 NW 13 17 7 9 1016.9 1016.9 1.8
24/08:00pm 10.0 5.6 6.5 79 1.6 W 19 32 10 17 1017.0 1017.0 1.8
24/07:30pm 9.1 5.4 6.4 83 1.3 NW 15 22 8 12 1016.9 1016.9 1.8
24/07:00pm 9.9 5.5 7.2 83 1.3 W 20 32 11 17 1016.9 1016.9 1.8
24/06:30pm 9.2 4.3 6.8 85 1.1 NW 22 32 12 17 1017.0 1017.0 1.8
24/06:00pm 9.6 6.0 6.9 83 1.3 W 15 28 8 15 1017.1 1017.1 1.0
24/05:30pm 9.0 5.7 6.6 85 1.1 WNW 13 28 7 15 1017.1 1017.1 1.0
24/05:00pm 9.8 5.9 6.9 82 1.4 WNW 17 32 9 17 1017.2 1017.2 0.8
24/04:30pm 10.0 7.5 6.5 79 1.6 NNW 9 17 5 9 1017.1 1017.1 0.6
24/04:00pm 10.4 6.3 6.4 76 1.9 W 17 33 9 18 1017.2 1017.2 0.6
24/03:30pm 9.7 6.4 6.2 79 1.6 WNW 13 20 7 11 1017.3 1017.3 0.6
24/03:00pm 10.3 5.6 5.9 74 2.0 WNW 20 32 11 17 1017.5 1017.5 0.2
24/02:30pm 11.2 6.5 5.9 70 2.5 NW 20 30 11 16 1017.3 1017.3 0.2
24/02:00pm 11.1 6.8 5.2 67 2.7 W 17 28 9 15 1017.5 1017.5 0.2
24/01:30pm 10.7 6.9 5.9 72 2.2 W 15 20 8 11 1017.9 1017.9 0.2
24/01:00pm 10.6 5.9 5.2 69 2.5 WNW 19 35 10 19 1018.2 1018.2 0.0
24/12:30pm 11.1 6.2 4.1 62 3.1 W 19 28 10 15 1018.3 1018.3 0.0
24/12:00pm 11.0 6.0 3.5 60 3.3 W 19 28 10 15 1018.6 1018.6 0.0
24/11:30am 11.3 8.0 4.5 63 3.1 W 11 22 6 12 1019.0 1019.0 0.0
24/11:00am 11.7 8.1 3.0 55 3.8 WNW 11 20 6 11 1019.2 1019.2 0.0
24/10:30am 11.3 7.4 3.6 59 3.4 WNW 13 22 7 12 1019.2 1019.2 0.0
24/10:00am 10.4 6.4 2.7 59 3.3 N 13 20 7 11 1019.1 1019.1 0.0
24/09:30am 10.2 6.0 3.7 64 2.9 WNW 15 24 8 13 1019.0 1019.0 0.0
24/09:00am 9.3 6.4 4.5 72 2.1 NW 9 17 5 9 1018.9 1018.9 4.0
24/08:30am 8.5 4.7 4.1 74 1.9 S 13 24 7 13 1019.0 1019.0 4.0
24/08:00am 9.9 6.4 3.6 65 2.7 NNE 11 20 6 11 1018.7 1018.7 3.6
24/07:30am 9.6 5.2 2.7 62 2.9 S 15 28 8 15 1018.6 1018.6 3.6
24/07:00am 9.2 4.7 4.4 72 2.1 NE 17 26 9 14 1018.1 1018.1 3.6
24/06:30am 9.5 5.8 4.7 72 2.1 NNW 13 32 7 17 1017.8 1017.8 3.6
24/06:00am 10.1 4.0 4.9 70 2.3 S 26 33 14 18 1017.4 1017.4 3.6
24/05:30am 9.7 5.7 2.8 62 3.0 NE 13 20 7 11 1017.3 1017.3 3.6
24/05:00am 9.9 6.0 3.4 64 2.8 E 13 28 7 15 1017.2 1017.2 3.6
24/04:30am 9.7 5.8 3.2 64 2.8 ESE 13 22 7 12 1017.0 1017.0 3.6
24/04:00am 10.0 5.7 3.5 64 2.8 SSE 15 26 8 14 1017.0 1017.0 3.6
24/03:30am 9.9 5.6 3.2 63 2.9 ESE 15 26 8 14 1016.9 1016.9 3.6
24/03:00am 9.9 5.3 3.6 65 2.7 NE 17 32 9 17 1016.8 1016.8 3.6
24/02:30am 10.1 5.3 4.5 68 2.5 SSE 19 35 10 19 1016.8 1016.8 3.6
24/02:00am 10.3 5.5 4.9 69 2.4 S 19 30 10 16 1016.9 1016.9 3.6
24/01:30am 9.9 4.4 4.1 67 2.6 SSE 22 41 12 22 1016.7 1016.7 3.6
24/01:00am 10.3 5.4 4.9 69 2.4 SSE 20 35 11 19 1016.5 1016.5 3.6
24/12:30am 10.5 5.6 5.1 69 2.5 SE 20 44 11 24 1016.6 1016.6 3.6
24/12:00am 10.8 5.7 5.8 71 2.3 SSE 22 37 12 20 1016.6 1016.6 3.6
 
Date/Time
EST
Temp
°C
App
Temp
°C
Dew
Point
°C
Rel
Hum
%
Delta-T
°C
Wind Press
QNH
hPa
Press
MSL
hPa
Rain since
9am
mm
Dir  Spd
km/h
Gust
km/h
Spd
kts
Gust
kts
23/11:30pm 10.7 3.2 6.3 74 2.1 S 35 50 19 27 1016.6 1016.6 3.6
23/11:06pm 10.6 4.1 6.7 77 1.8 S 30 48 16 26 1016.5 1016.5 3.6
23/11:00pm 10.5 3.1 6.8 78 1.7 S 35 48 19 26 1016.4 1016.4 3.6
23/10:40pm 11.1 4.7 7.0 76 2.0 S 30 48 16 26 1016.3 1016.3 3.6
23/10:30pm 11.3 4.5 7.6 78 1.8 S 33 48 18 26 1016.3 1016.3 3.6
23/10:00pm 10.4 4.2 7.8 84 1.3 S 30 48 16 26 1016.0 1016.0 3.6
23/09:36pm 10.6 4.9 8.5 87 1.0 S 28 50 15 27 1016.0 1016.0 3.6
23/09:30pm 10.7 5.5 8.8 88 0.9 S 26 43 14 23 1015.9 1015.9 3.6
23/09:11pm 10.2 4.5 8.5 89 0.8 S 28 50 15 27 1015.8 1015.8 3.6
23/09:00pm 10.4 4.8 8.7 89 0.8 S 28 43 15 23 1015.4 1015.4 3.6
23/08:44pm 11.0 5.4 8.9 87 1.0 S 28 48 15 26 1015.4 1015.4 3.6
23/08:30pm 11.5 6.7 8.9 84 1.3 S 24 43 13 23 1015.0 1015.0 3.4
23/08:00pm 11.8 7.3 8.6 81 1.6 SE 22 37 12 20 1014.6 1014.6 3.4
23/07:30pm 12.5 7.9 8.2 75 2.1 N 22 39 12 21 1014.1 1014.1 3.4
23/07:16pm 12.8 7.2 8.9 77 2.0 WNW 28 48 15 26 1013.9 1013.9 3.4
23/07:00pm 12.5 6.9 8.6 77 1.9 WNW 28 46 15 25 1013.6 1013.6 3.4
23/06:55pm 12.6 6.7 8.9 78 1.9 WNW 30 46 16 25 1013.6 1013.6 3.4
23/06:30pm 12.2 7.9 9.4 83 1.4 N 22 41 12 22 1013.2 1013.2 3.4
23/06:04pm 12.2 7.0 10.3 88 1.0 W 28 46 15 25 1013.4 1013.4 3.4
23/06:00pm 11.9 6.3 10.0 88 1.0 W 30 46 16 25 1013.4 1013.4 3.2
23/05:56pm 12.2 7.0 10.1 87 1.1 W 28 46 15 25 1013.4 1013.4 2.4
23/05:30pm 12.5 7.0 10.4 87 1.1 W 30 43 16 23 1013.3 1013.3 1.0
23/05:00pm 12.1 7.1 9.5 84 1.3 NW 26 43 14 23 1013.0 1013.0 0.8
23/04:30pm 14.5 7.7 9.3 71 2.7 W 35 59 19 32 1012.8 1012.8 0.0
23/04:11pm 14.7 7.6 8.2 65 3.3 WNW 35 54 19 29 1012.7 1012.7 0.0
23/04:00pm 14.8 7.8 8.3 65 3.3 W 35 50 19 27 1012.7 1012.7 0.0
23/03:31pm 14.9 7.7 7.5 61 3.7 WNW 35 54 19 29 1012.6 1012.6 0.0
23/03:30pm 14.9 7.7 7.7 62 3.6 WNW 35 50 19 27 1012.6 1012.6 0.0
23/03:05pm 15.1 7.7 6.9 58 4.0 W 35 54 19 29 1012.7 1012.7 0.0
23/03:00pm 15.2 7.9 7.0 58 4.0 W 35 50 19 27 1012.6 1012.6 0.0
23/02:30pm 15.1 8.2 7.2 59 3.9 W 33 54 18 29 1012.6 1012.6 0.0
23/02:01pm 14.5 7.8 7.5 63 3.5 W 32 50 17 27 1012.8 1012.8 0.0
23/02:00pm 14.5 7.7 7.8 64 3.3 W 33 50 18 27 1012.8 1012.8 0.0
23/01:30pm 13.7 8.4 9.9 78 2.0 NW 28 46 15 25 1013.0 1013.0 0.0
23/01:19pm 13.5 7.3 9.4 76 2.1 NW 32 56 17 30 1013.0 1013.0 0.0
23/01:00pm 14.0 7.9 9.8 76 2.2 NW 32 46 17 25 1013.2 1013.2 0.0
23/12:30pm 14.4 8.2 9.4 72 2.6 NW 32 41 17 22 1013.4 1013.4 0.0
23/12:00pm 13.5 8.1 9.6 77 2.0 NW 28 43 15 23 1013.7 1013.7 0.0
23/11:30am 12.4 5.7 8.3 76 2.0 NW 33 43 18 23 1014.2 1014.2 0.0
23/11:20am 12.3 5.2 8.2 76 2.0 NW 35 54 19 29 1014.2 1014.2 0.0
23/11:00am 12.9 6.5 8.4 74 2.2 NW 32 43 17 23 1014.5 1014.5 0.0
23/10:30am 11.2 4.7 8.1 81 1.5 NW 32 43 17 23 1014.7 1014.7 0.0
23/10:00am 11.1 4.0 8.1 82 1.5 NW 35 48 19 26 1014.9 1014.9 0.0
23/09:30am 10.8 5.3 7.5 80 1.6 NNW 26 35 14 19 1015.0 1015.0 0.0
23/09:00am 9.7 3.9 6.4 80 1.5 NNW 26 35 14 19 1015.1 1015.1 0.0
23/08:30am 8.7 3.1 5.6 81 1.4 NNW 24 37 13 20 1014.9 1014.9 0.0
23/08:00am 8.6 3.0 5.2 79 1.5 NNW 24 37 13 20 1015.0 1015.0 0.0
23/07:30am 8.7 3.0 4.9 77 1.7 NNW 24 33 13 18 1015.3 1015.3 0.0
23/07:00am 8.9 2.9 5.1 77 1.7 NNW 26 39 14 21 1015.5 1015.5 0.0
23/06:30am 9.0 3.4 5.4 78 1.6 NNW 24 35 13 19 1015.6 1015.6 0.0
23/06:00am 9.2 3.6 5.4 77 1.7 NNW 24 39 13 21 1015.7 1015.7 0.0
23/05:30am 9.5 2.8 5.5 76 1.8 NNW 30 43 16 23 1015.8 1015.8 0.0
23/05:08am 9.6 2.9 5.6 76 1.8 NNW 30 48 16 26 1015.9 1015.9 0.0
23/05:00am 9.6 3.3 5.6 76 1.8 NNW 28 41 15 22 1016.0 1016.0 0.0
23/04:32am 9.8 3.1 5.8 76 1.8 NNW 30 48 16 26 1016.3 1016.3 0.0
23/04:30am 9.7 3.1 5.9 77 1.7 NNW 30 44 16 24 1016.3 1016.3 0.0
23/04:00am 9.5 3.5 5.5 76 1.8 NNW 26 39 14 21 1016.4 1016.4 0.0
23/03:30am 9.4 3.8 5.6 77 1.7 NNW 24 35 13 19 1016.8 1016.8 0.0
23/03:00am 9.1 4.2 5.3 77 1.7 NNW 20 28 11 15 1017.4 1017.4 0.0
23/02:30am 9.3 4.5 5.5 77 1.7 NNW 20 32 11 17 1017.8 1017.8 0.0
23/02:00am 9.4 4.6 5.4 76 1.8 NNW 20 30 11 16 1018.0 1018.0 0.0
23/01:30am 10.2 5.1 5.8 74 2.0 NNW 22 32 12 17 1018.3 1018.3 0.0
23/01:00am 10.7 4.9 6.3 74 2.1 NNW 26 35 14 19 1018.6 1018.6 0.0
23/12:30am 10.4 5.8 6.7 78 1.7 NNW 20 30 11 16 1018.8 1018.8 0.0
23/12:00am 10.5 6.1 7.4 81 1.5 NNW 20 28 11 15 1019.4 1019.5 0.0
 
Date/Time
EST
Temp
°C
App
Temp
°C
Dew
Point
°C
Rel
Hum
%
Delta-T
°C
Wind Press
QNH
hPa
Press
MSL
hPa
Rain since
9am
mm
Dir  Spd
km/h
Gust
km/h
Spd
kts
Gust
kts
22/11:30pm 10.3 5.9 7.5 83 1.3 NNW 20 26 11 14 1019.9 1020.0 0.0
22/11:00pm 10.3 6.1 7.5 83 1.3 N 19 24 10 13 1020.1 1020.2 0.0
22/10:30pm 10.4 7.0 7.5 82 1.4 NNW 15 19 8 10 1020.6 1020.7 0.0
22/10:00pm 10.9 7.2 7.8 81 1.5 NNW 17 22 9 12 1020.8 1020.9 0.0
22/09:30pm 11.4 7.7 8.1 80 1.6 NNW 17 22 9 12 1021.2 1021.3 0.0
22/09:00pm 11.6 8.0 8.3 80 1.6 NNW 17 20 9 11 1021.3 1021.4 0.0

Other Formats:

Comma delimited format used in spreadsheet applications
http://www.bom.gov.au/fwo/IDV60801/IDV60801.94826.axf

JavaScript Object Notation format (JSON) in row-major order
http://www.bom.gov.au/fwo/IDV60801/IDV60801.94826.json